sensor_id;sensor_type;location;lat;lon;timestamp;temperature;humidity
59311;DHT22;45078;51.654;21.250;2023-02-15T00:01:44;3.60;99.90
59311;DHT22;45078;51.654;21.250;2023-02-15T00:04:14;3.60;99.90
59311;DHT22;45078;51.654;21.250;2023-02-15T00:06:40;3.70;99.90
59311;DHT22;45078;51.654;21.250;2023-02-15T00:09:06;3.70;99.90
59311;DHT22;45078;51.654;21.250;2023-02-15T00:11:32;3.70;99.90
59311;DHT22;45078;51.654;21.250;2023-02-15T00:14:16;3.70;99.90
59311;DHT22;45078;51.654;21.250;2023-02-15T00:16:43;3.60;99.90
59311;DHT22;45078;51.654;21.250;2023-02-15T00:19:11;3.60;99.90
59311;DHT22;45078;51.654;21.250;2023-02-15T00:21:39;3.70;99.90
59311;DHT22;45078;51.654;21.250;2023-02-15T00:24:06;3.60;99.90
59311;DHT22;45078;51.654;21.250;2023-02-15T00:26:33;3.60;99.90
59311;DHT22;45078;51.654;21.250;2023-02-15T00:28:59;3.60;99.90
59311;DHT22;45078;51.654;21.250;2023-02-15T00:31:29;3.60;99.90
59311;DHT22;45078;51.654;21.250;2023-02-15T00:34:00;3.70;99.90
59311;DHT22;45078;51.654;21.250;2023-02-15T00:36:26;3.70;99.90
59311;DHT22;45078;51.654;21.250;2023-02-15T00:38:52;3.60;99.90
59311;DHT22;45078;51.654;21.250;2023-02-15T00:41:18;3.60;99.90
59311;DHT22;45078;51.654;21.250;2023-02-15T00:43:43;3.60;99.90
59311;DHT22;45078;51.654;21.250;2023-02-15T00:46:09;3.60;99.90
59311;DHT22;45078;51.654;21.250;2023-02-15T00:48:35;3.60;99.90
59311;DHT22;45078;51.654;21.250;2023-02-15T00:51:01;3.60;99.90
59311;DHT22;45078;51.654;21.250;2023-02-15T00:53:27;3.60;99.90
59311;DHT22;45078;51.654;21.250;2023-02-15T00:55:53;3.60;99.90
59311;DHT22;45078;51.654;21.250;2023-02-15T00:58:19;3.60;99.90
59311;DHT22;45078;51.654;21.250;2023-02-15T01:00:46;3.60;99.90
59311;DHT22;45078;51.654;21.250;2023-02-15T01:03:14;3.60;99.90
59311;DHT22;45078;51.654;21.250;2023-02-15T01:05:40;3.60;99.90
59311;DHT22;45078;51.654;21.250;2023-02-15T01:08:06;3.60;99.90
59311;DHT22;45078;51.654;21.250;2023-02-15T01:10:33;3.60;99.90
59311;DHT22;45078;51.654;21.250;2023-02-15T01:12:59;3.50;99.90
59311;DHT22;45078;51.654;21.250;2023-02-15T01:15:25;3.50;99.90
59311;DHT22;45078;51.654;21.250;2023-02-15T01:17:51;3.60;99.90
59311;DHT22;45078;51.654;21.250;2023-02-15T01:20:25;3.60;99.90
59311;DHT22;45078;51.654;21.250;2023-02-15T01:22:52;3.60;99.90
59311;DHT22;45078;51.654;21.250;2023-02-15T01:25:19;3.60;99.90
59311;DHT22;45078;51.654;21.250;2023-02-15T01:27:45;3.60;99.90
59311;DHT22;45078;51.654;21.250;2023-02-15T01:30:13;3.50;99.90
59311;DHT22;45078;51.654;21.250;2023-02-15T01:32:39;3.60;99.90
59311;DHT22;45078;51.654;21.250;2023-02-15T01:35:06;3.50;99.90
59311;DHT22;45078;51.654;21.250;2023-02-15T01:37:33;3.60;99.90
59311;DHT22;45078;51.654;21.250;2023-02-15T01:40:00;3.50;99.90
59311;DHT22;45078;51.654;21.250;2023-02-15T01:42:28;3.60;99.90
59311;DHT22;45078;51.654;21.250;2023-02-15T01:44:56;3.50;99.90
59311;DHT22;45078;51.654;21.250;2023-02-15T01:47:43;3.50;99.90
59311;DHT22;45078;51.654;21.250;2023-02-15T01:50:23;3.50;99.90
59311;DHT22;45078;51.654;21.250;2023-02-15T01:52:57;3.50;99.90
59311;DHT22;45078;51.654;21.250;2023-02-15T01:55:29;3.50;99.90
59311;DHT22;45078;51.654;21.250;2023-02-15T01:57:56;3.50;99.90
59311;DHT22;45078;51.654;21.250;2023-02-15T02:00:22;3.40;99.90
59311;DHT22;45078;51.654;21.250;2023-02-15T02:02:50;3.50;99.90
59311;DHT22;45078;51.654;21.250;2023-02-15T02:05:18;3.60;99.90
59311;DHT22;45078;51.654;21.250;2023-02-15T02:07:45;3.50;99.90
59311;DHT22;45078;51.654;21.250;2023-02-15T02:10:18;3.50;99.90
59311;DHT22;45078;51.654;21.250;2023-02-15T02:12:45;3.50;99.90
59311;DHT22;45078;51.654;21.250;2023-02-15T02:15:13;3.50;99.90
59311;DHT22;45078;51.654;21.250;2023-02-15T02:18:03;3.40;99.90
59311;DHT22;45078;51.654;21.250;2023-02-15T02:34:54;3.40;99.90
59311;DHT22;45078;51.654;21.250;2023-02-15T02:37:37;3.30;99.90
59311;DHT22;45078;51.654;21.250;2023-02-15T02:48:49;3.30;99.90
59311;DHT22;45078;51.654;21.250;2023-02-15T02:51:15;3.30;99.90
59311;DHT22;45078;51.654;21.250;2023-02-15T02:53:54;3.30;99.90
59311;DHT22;45078;51.654;21.250;2023-02-15T02:56:45;3.30;99.90
59311;DHT22;45078;51.654;21.250;2023-02-15T02:59:20;3.20;99.90
59311;DHT22;45078;51.654;21.250;2023-02-15T03:01:54;3.30;99.90
59311;DHT22;45078;51.654;21.250;2023-02-15T03:04:27;3.20;99.90
59311;DHT22;45078;51.654;21.250;2023-02-15T03:07:08;3.20;99.90
59311;DHT22;45078;51.654;21.250;2023-02-15T03:09:45;3.20;99.90
59311;DHT22;45078;51.654;21.250;2023-02-15T03:12:17;3.20;99.90
59311;DHT22;45078;51.654;21.250;2023-02-15T03:14:46;3.20;99.90
59311;DHT22;45078;51.654;21.250;2023-02-15T03:17:14;3.20;99.90
59311;DHT22;45078;51.654;21.250;2023-02-15T03:19:41;3.20;99.90
59311;DHT22;45078;51.654;21.250;2023-02-15T03:22:20;3.20;99.90
59311;DHT22;45078;51.654;21.250;2023-02-15T03:24:56;3.30;99.90
59311;DHT22;45078;51.654;21.250;2023-02-15T03:27:26;3.30;99.90
59311;DHT22;45078;51.654;21.250;2023-02-15T03:29:56;3.30;99.90
59311;DHT22;45078;51.654;21.250;2023-02-15T03:32:25;3.30;99.90
59311;DHT22;45078;51.654;21.250;2023-02-15T03:34:52;3.30;99.90
59311;DHT22;45078;51.654;21.250;2023-02-15T03:37:53;3.40;99.90
59311;DHT22;45078;51.654;21.250;2023-02-15T03:40:28;3.40;99.90
59311;DHT22;45078;51.654;21.250;2023-02-15T03:49:21;3.30;99.90
59311;DHT22;45078;51.654;21.250;2023-02-15T03:51:50;3.30;99.90
59311;DHT22;45078;51.654;21.250;2023-02-15T03:54:23;3.20;99.90
59311;DHT22;45078;51.654;21.250;2023-02-15T03:57:29;3.20;99.90
59311;DHT22;45078;51.654;21.250;2023-02-15T04:00:19;3.20;99.90
59311;DHT22;45078;51.654;21.250;2023-02-15T04:03:16;3.20;99.90
59311;DHT22;45078;51.654;21.250;2023-02-15T04:05:45;3.20;99.90
59311;DHT22;45078;51.654;21.250;2023-02-15T04:08:12;3.10;99.90
59311;DHT22;45078;51.654;21.250;2023-02-15T04:10:38;3.10;99.90
59311;DHT22;45078;51.654;21.250;2023-02-15T04:13:30;3.10;99.90
59311;DHT22;45078;51.654;21.250;2023-02-15T04:15:56;3.10;99.90
59311;DHT22;45078;51.654;21.250;2023-02-15T04:18:39;3.00;99.90
59311;DHT22;45078;51.654;21.250;2023-02-15T04:21:25;3.00;99.90
59311;DHT22;45078;51.654;21.250;2023-02-15T04:24:10;3.00;99.90
59311;DHT22;45078;51.654;21.250;2023-02-15T04:26:55;3.00;99.90
59311;DHT22;45078;51.654;21.250;2023-02-15T04:29:23;3.00;99.90
59311;DHT22;45078;51.654;21.250;2023-02-15T04:31:50;3.00;99.90
59311;DHT22;45078;51.654;21.250;2023-02-15T04:34:16;3.00;99.90
59311;DHT22;45078;51.654;21.250;2023-02-15T04:36:42;3.00;99.90
59311;DHT22;45078;51.654;21.250;2023-02-15T04:39:08;3.00;99.90
59311;DHT22;45078;51.654;21.250;2023-02-15T04:41:34;2.90;99.90
59311;DHT22;45078;51.654;21.250;2023-02-15T04:44:01;3.00;99.90
59311;DHT22;45078;51.654;21.250;2023-02-15T04:46:27;2.90;99.90
59311;DHT22;45078;51.654;21.250;2023-02-15T04:48:54;3.00;99.90
59311;DHT22;45078;51.654;21.250;2023-02-15T04:51:20;2.90;99.90
59311;DHT22;45078;51.654;21.250;2023-02-15T04:53:46;2.90;99.90
59311;DHT22;45078;51.654;21.250;2023-02-15T04:56:12;2.90;99.90
59311;DHT22;45078;51.654;21.250;2023-02-15T04:58:37;2.90;99.90
59311;DHT22;45078;51.654;21.250;2023-02-15T05:01:10;2.90;99.90
59311;DHT22;45078;51.654;21.250;2023-02-15T05:03:36;2.90;99.90
59311;DHT22;45078;51.654;21.250;2023-02-15T05:06:02;2.90;99.90
59311;DHT22;45078;51.654;21.250;2023-02-15T05:08:28;2.90;99.90
59311;DHT22;45078;51.654;21.250;2023-02-15T05:10:54;3.00;99.90
59311;DHT22;45078;51.654;21.250;2023-02-15T05:13:20;3.00;99.90
59311;DHT22;45078;51.654;21.250;2023-02-15T05:15:50;3.10;99.90
59311;DHT22;45078;51.654;21.250;2023-02-15T05:18:17;3.10;99.90
59311;DHT22;45078;51.654;21.250;2023-02-15T05:20:43;3.10;99.90
59311;DHT22;45078;51.654;21.250;2023-02-15T05:23:09;3.00;99.90
59311;DHT22;45078;51.654;21.250;2023-02-15T05:25:36;3.00;99.90
59311;DHT22;45078;51.654;21.250;2023-02-15T05:28:21;2.90;99.90
59311;DHT22;45078;51.654;21.250;2023-02-15T05:31:02;2.90;99.90
59311;DHT22;45078;51.654;21.250;2023-02-15T05:33:28;2.90;99.90
59311;DHT22;45078;51.654;21.250;2023-02-15T05:35:54;3.00;99.90
59311;DHT22;45078;51.654;21.250;2023-02-15T05:38:20;3.00;99.90
59311;DHT22;45078;51.654;21.250;2023-02-15T05:40:46;3.00;99.90
59311;DHT22;45078;51.654;21.250;2023-02-15T05:43:12;3.00;99.90
59311;DHT22;45078;51.654;21.250;2023-02-15T05:45:37;3.00;99.90
59311;DHT22;45078;51.654;21.250;2023-02-15T05:48:03;3.00;99.90
59311;DHT22;45078;51.654;21.250;2023-02-15T05:50:29;3.00;99.90
59311;DHT22;45078;51.654;21.250;2023-02-15T05:52:55;2.90;99.90
59311;DHT22;45078;51.654;21.250;2023-02-15T05:55:21;2.90;99.90
59311;DHT22;45078;51.654;21.250;2023-02-15T05:57:46;2.90;99.90
59311;DHT22;45078;51.654;21.250;2023-02-15T06:00:13;2.80;99.90
59311;DHT22;45078;51.654;21.250;2023-02-15T06:02:39;2.70;99.90
59311;DHT22;45078;51.654;21.250;2023-02-15T06:05:06;2.70;99.90
59311;DHT22;45078;51.654;21.250;2023-02-15T06:07:32;2.70;99.90
59311;DHT22;45078;51.654;21.250;2023-02-15T06:09:57;2.70;99.90
59311;DHT22;45078;51.654;21.250;2023-02-15T06:12:23;2.70;99.90
59311;DHT22;45078;51.654;21.250;2023-02-15T06:14:49;2.70;99.90
59311;DHT22;45078;51.654;21.250;2023-02-15T06:17:15;2.80;99.90
59311;DHT22;45078;51.654;21.250;2023-02-15T06:19:42;2.90;99.90
59311;DHT22;45078;51.654;21.250;2023-02-15T06:22:08;2.80;99.90
59311;DHT22;45078;51.654;21.250;2023-02-15T06:24:34;2.90;99.90
59311;DHT22;45078;51.654;21.250;2023-02-15T06:27:00;2.90;99.90
59311;DHT22;45078;51.654;21.250;2023-02-15T06:29:26;2.90;99.90
59311;DHT22;45078;51.654;21.250;2023-02-15T06:31:51;2.90;99.90
59311;DHT22;45078;51.654;21.250;2023-02-15T06:34:17;2.90;99.90
59311;DHT22;45078;51.654;21.250;2023-02-15T06:36:43;2.80;99.90
59311;DHT22;45078;51.654;21.250;2023-02-15T06:39:09;2.80;99.90
59311;DHT22;45078;51.654;21.250;2023-02-15T06:41:34;2.80;99.90
59311;DHT22;45078;51.654;21.250;2023-02-15T06:44:00;2.80;99.90
59311;DHT22;45078;51.654;21.250;2023-02-15T06:46:26;2.90;99.90
59311;DHT22;45078;51.654;21.250;2023-02-15T06:48:52;2.90;99.90
59311;DHT22;45078;51.654;21.250;2023-02-15T06:51:17;2.90;99.90
59311;DHT22;45078;51.654;21.250;2023-02-15T06:53:43;2.90;99.90
59311;DHT22;45078;51.654;21.250;2023-02-15T06:56:10;2.80;99.90
59311;DHT22;45078;51.654;21.250;2023-02-15T06:58:38;2.80;99.90
59311;DHT22;45078;51.654;21.250;2023-02-15T07:01:04;2.80;99.90
59311;DHT22;45078;51.654;21.250;2023-02-15T07:03:31;2.80;99.90
59311;DHT22;45078;51.654;21.250;2023-02-15T07:05:58;2.80;99.90
59311;DHT22;45078;51.654;21.250;2023-02-15T07:08:25;2.70;99.90
59311;DHT22;45078;51.654;21.250;2023-02-15T07:10:52;2.80;99.90
59311;DHT22;45078;51.654;21.250;2023-02-15T07:13:18;2.80;99.90
59311;DHT22;45078;51.654;21.250;2023-02-15T07:15:47;3.00;99.90
59311;DHT22;45078;51.654;21.250;2023-02-15T07:18:14;2.90;99.90
59311;DHT22;45078;51.654;21.250;2023-02-15T07:20:40;3.00;99.90
59311;DHT22;45078;51.654;21.250;2023-02-15T07:23:07;2.90;99.90
59311;DHT22;45078;51.654;21.250;2023-02-15T07:25:34;3.00;99.90
59311;DHT22;45078;51.654;21.250;2023-02-15T07:28:03;3.00;99.90
59311;DHT22;45078;51.654;21.250;2023-02-15T07:30:30;2.80;99.90
59311;DHT22;45078;51.654;21.250;2023-02-15T07:32:57;2.80;99.90
59311;DHT22;45078;51.654;21.250;2023-02-15T07:38:14;2.80;99.90
59311;DHT22;45078;51.654;21.250;2023-02-15T07:40:40;2.80;99.90
59311;DHT22;45078;51.654;21.250;2023-02-15T07:43:06;2.70;99.90
59311;DHT22;45078;51.654;21.250;2023-02-15T07:45:32;2.70;99.90
59311;DHT22;45078;51.654;21.250;2023-02-15T07:47:57;2.70;99.90
59311;DHT22;45078;51.654;21.250;2023-02-15T07:50:23;2.80;99.90
59311;DHT22;45078;51.654;21.250;2023-02-15T07:52:49;2.70;99.90
59311;DHT22;45078;51.654;21.250;2023-02-15T07:55:15;2.90;99.90
59311;DHT22;45078;51.654;21.250;2023-02-15T07:57:48;2.90;99.90
59311;DHT22;45078;51.654;21.250;2023-02-15T08:00:17;2.90;99.90
59311;DHT22;45078;51.654;21.250;2023-02-15T08:02:50;2.90;99.90
59311;DHT22;45078;51.654;21.250;2023-02-15T08:05:35;3.00;99.90
59311;DHT22;45078;51.654;21.250;2023-02-15T08:08:01;3.00;99.90
59311;DHT22;45078;51.654;21.250;2023-02-15T08:10:27;3.00;99.90
59311;DHT22;45078;51.654;21.250;2023-02-15T08:13:13;3.00;99.90
59311;DHT22;45078;51.654;21.250;2023-02-15T08:15:38;2.90;99.90
59311;DHT22;45078;51.654;21.250;2023-02-15T08:18:04;2.80;99.90
59311;DHT22;45078;51.654;21.250;2023-02-15T08:20:31;2.80;99.90
59311;DHT22;45078;51.654;21.250;2023-02-15T08:22:56;2.80;99.90
59311;DHT22;45078;51.654;21.250;2023-02-15T08:25:22;2.80;99.90
59311;DHT22;45078;51.654;21.250;2023-02-15T08:27:49;2.90;99.90
59311;DHT22;45078;51.654;21.250;2023-02-15T08:30:15;2.90;99.90
59311;DHT22;45078;51.654;21.250;2023-02-15T08:32:41;3.00;99.90
59311;DHT22;45078;51.654;21.250;2023-02-15T08:35:06;2.90;99.90
59311;DHT22;45078;51.654;21.250;2023-02-15T08:37:32;2.90;99.90
59311;DHT22;45078;51.654;21.250;2023-02-15T08:39:58;2.90;99.90
59311;DHT22;45078;51.654;21.250;2023-02-15T08:42:24;2.90;99.90
59311;DHT22;45078;51.654;21.250;2023-02-15T08:44:49;2.80;99.90
59311;DHT22;45078;51.654;21.250;2023-02-15T08:47:17;2.80;99.90
59311;DHT22;45078;51.654;21.250;2023-02-15T08:49:42;2.90;99.90
59311;DHT22;45078;51.654;21.250;2023-02-15T08:52:08;2.90;99.90
59311;DHT22;45078;51.654;21.250;2023-02-15T08:54:34;2.90;99.90
59311;DHT22;45078;51.654;21.250;2023-02-15T08:56:59;2.90;99.90
59311;DHT22;45078;51.654;21.250;2023-02-15T08:59:25;2.90;99.90
59311;DHT22;45078;51.654;21.250;2023-02-15T09:01:53;2.90;99.90
59311;DHT22;45078;51.654;21.250;2023-02-15T09:04:20;2.80;99.90
59311;DHT22;45078;51.654;21.250;2023-02-15T09:06:47;2.80;99.90
59311;DHT22;45078;51.654;21.250;2023-02-15T09:09:14;2.90;99.90
59311;DHT22;45078;51.654;21.250;2023-02-15T09:11:42;2.90;99.90
59311;DHT22;45078;51.654;21.250;2023-02-15T09:14:11;2.90;99.90
59311;DHT22;45078;51.654;21.250;2023-02-15T09:16:40;3.00;99.90
59311;DHT22;45078;51.654;21.250;2023-02-15T09:19:06;3.00;99.90
59311;DHT22;45078;51.654;21.250;2023-02-15T09:21:35;3.00;99.90
59311;DHT22;45078;51.654;21.250;2023-02-15T09:24:04;3.00;99.90
59311;DHT22;45078;51.654;21.250;2023-02-15T09:26:31;3.00;99.90
59311;DHT22;45078;51.654;21.250;2023-02-15T09:28:59;3.00;99.90
59311;DHT22;45078;51.654;21.250;2023-02-15T09:31:28;3.10;99.90
59311;DHT22;45078;51.654;21.250;2023-02-15T09:33:55;3.10;99.90
59311;DHT22;45078;51.654;21.250;2023-02-15T09:36:30;3.00;99.90
59311;DHT22;45078;51.654;21.250;2023-02-15T09:38:59;3.00;99.90
59311;DHT22;45078;51.654;21.250;2023-02-15T09:50:02;3.00;99.90
59311;DHT22;45078;51.654;21.250;2023-02-15T09:55:19;3.00;99.90
59311;DHT22;45078;51.654;21.250;2023-02-15T10:01:46;3.00;99.90
59311;DHT22;45078;51.654;21.250;2023-02-15T10:06:49;3.00;99.90
59311;DHT22;45078;51.654;21.250;2023-02-15T10:28:04;2.90;99.90
59311;DHT22;45078;51.654;21.250;2023-02-15T10:30:52;2.80;99.90
59311;DHT22;45078;51.654;21.250;2023-02-15T10:33:42;2.90;99.90
59311;DHT22;45078;51.654;21.250;2023-02-15T10:39:02;3.00;99.90
59311;DHT22;45078;51.654;21.250;2023-02-15T10:50:20;2.90;99.90
59311;DHT22;45078;51.654;21.250;2023-02-15T10:58:53;2.90;99.90
59311;DHT22;45078;51.654;21.250;2023-02-15T11:01:41;2.90;99.90
59311;DHT22;45078;51.654;21.250;2023-02-15T11:04:32;3.00;99.90
59311;DHT22;45078;51.654;21.250;2023-02-15T11:07:18;3.00;99.90
59311;DHT22;45078;51.654;21.250;2023-02-15T11:12:50;3.00;99.90
59311;DHT22;45078;51.654;21.250;2023-02-15T11:18:31;2.80;99.90
59311;DHT22;45078;51.654;21.250;2023-02-15T11:23:43;2.90;99.90
59311;DHT22;45078;51.654;21.250;2023-02-15T11:28:58;2.90;99.90
59311;DHT22;45078;51.654;21.250;2023-02-15T11:31:27;3.00;99.90
59311;DHT22;45078;51.654;21.250;2023-02-15T11:34:13;2.90;99.90
59311;DHT22;45078;51.654;21.250;2023-02-15T11:36:41;2.90;99.90
59311;DHT22;45078;51.654;21.250;2023-02-15T11:39:15;2.90;99.90
59311;DHT22;45078;51.654;21.250;2023-02-15T11:41:45;2.80;99.90
59311;DHT22;45078;51.654;21.250;2023-02-15T11:44:28;2.90;99.90
59311;DHT22;45078;51.654;21.250;2023-02-15T11:46:57;2.90;99.90
59311;DHT22;45078;51.654;21.250;2023-02-15T11:49:31;2.90;99.90
59311;DHT22;45078;51.654;21.250;2023-02-15T11:51:58;3.00;99.90
59311;DHT22;45078;51.654;21.250;2023-02-15T11:54:31;3.10;99.90
59311;DHT22;45078;51.654;21.250;2023-02-15T11:57:19;3.20;99.90
59311;DHT22;45078;51.654;21.250;2023-02-15T12:00:12;3.20;99.90
59311;DHT22;45078;51.654;21.250;2023-02-15T12:02:44;3.20;99.90
59311;DHT22;45078;51.654;21.250;2023-02-15T12:05:17;3.20;99.90
59311;DHT22;45078;51.654;21.250;2023-02-15T12:07:53;3.10;99.90
59311;DHT22;45078;51.654;21.250;2023-02-15T12:10:26;3.10;99.90
59311;DHT22;45078;51.654;21.250;2023-02-15T12:13:16;2.90;99.90
59311;DHT22;45078;51.654;21.250;2023-02-15T12:15:55;2.80;99.90
59311;DHT22;45078;51.654;21.250;2023-02-15T12:18:34;2.80;99.90
59311;DHT22;45078;51.654;21.250;2023-02-15T12:21:15;2.90;99.90
59311;DHT22;45078;51.654;21.250;2023-02-15T12:23:51;3.00;99.90
59311;DHT22;45078;51.654;21.250;2023-02-15T12:26:35;3.10;99.90
59311;DHT22;45078;51.654;21.250;2023-02-15T12:29:07;3.10;99.90
59311;DHT22;45078;51.654;21.250;2023-02-15T12:31:40;3.10;99.90
59311;DHT22;45078;51.654;21.250;2023-02-15T12:34:25;3.20;99.90
59311;DHT22;45078;51.654;21.250;2023-02-15T12:36:54;3.20;99.90
59311;DHT22;45078;51.654;21.250;2023-02-15T12:39:33;3.20;99.90
59311;DHT22;45078;51.654;21.250;2023-02-15T12:42:00;3.20;99.90
59311;DHT22;45078;51.654;21.250;2023-02-15T12:44:28;3.20;99.90
59311;DHT22;45078;51.654;21.250;2023-02-15T12:50:14;3.10;99.90
59311;DHT22;45078;51.654;21.250;2023-02-15T12:52:48;3.10;99.90
59311;DHT22;45078;51.654;21.250;2023-02-15T12:55:24;3.00;99.90
59311;DHT22;45078;51.654;21.250;2023-02-15T12:58:22;3.10;99.90
59311;DHT22;45078;51.654;21.250;2023-02-15T13:01:17;3.10;99.90
59311;DHT22;45078;51.654;21.250;2023-02-15T13:03:59;3.20;99.90
59311;DHT22;45078;51.654;21.250;2023-02-15T13:06:27;3.30;99.90
59311;DHT22;45078;51.654;21.250;2023-02-15T13:08:59;3.30;99.90
59311;DHT22;45078;51.654;21.250;2023-02-15T13:11:31;3.20;99.90
59311;DHT22;45078;51.654;21.250;2023-02-15T13:14:02;3.10;99.90
59311;DHT22;45078;51.654;21.250;2023-02-15T13:16:35;3.00;99.90
59311;DHT22;45078;51.654;21.250;2023-02-15T13:22:10;3.00;99.90
59311;DHT22;45078;51.654;21.250;2023-02-15T13:24:46;3.10;99.90
59311;DHT22;45078;51.654;21.250;2023-02-15T13:27:19;3.10;99.90
59311;DHT22;45078;51.654;21.250;2023-02-15T13:29:59;3.20;99.90
59311;DHT22;45078;51.654;21.250;2023-02-15T13:32:38;3.10;99.90
59311;DHT22;45078;51.654;21.250;2023-02-15T13:35:14;3.20;99.90
59311;DHT22;45078;51.654;21.250;2023-02-15T13:51:30;3.50;99.90
59311;DHT22;45078;51.654;21.250;2023-02-15T14:08:47;3.50;99.90
59311;DHT22;45078;51.654;21.250;2023-02-15T14:12:09;3.70;99.90
59311;DHT22;45078;51.654;21.250;2023-02-15T14:17:13;3.70;99.90
59311;DHT22;45078;51.654;21.250;2023-02-15T14:19:50;3.60;99.90
59311;DHT22;45078;51.654;21.250;2023-02-15T14:22:48;3.70;99.90
59311;DHT22;45078;51.654;21.250;2023-02-15T14:30:43;3.60;99.90
59311;DHT22;45078;51.654;21.250;2023-02-15T14:36:14;3.50;99.90
59311;DHT22;45078;51.654;21.250;2023-02-15T14:41:37;3.50;99.90
59311;DHT22;45078;51.654;21.250;2023-02-15T14:47:06;3.40;99.90
59311;DHT22;45078;51.654;21.250;2023-02-15T14:49:37;3.40;99.90
59311;DHT22;45078;51.654;21.250;2023-02-15T14:52:11;3.50;99.90
59311;DHT22;45078;51.654;21.250;2023-02-15T15:04:39;3.50;99.90
59311;DHT22;45078;51.654;21.250;2023-02-15T15:07:27;3.40;99.90
59311;DHT22;45078;51.654;21.250;2023-02-15T15:12:45;3.40;99.90
59311;DHT22;45078;51.654;21.250;2023-02-15T15:18:08;3.30;99.90
59311;DHT22;45078;51.654;21.250;2023-02-15T15:25:49;3.40;99.90
59311;DHT22;45078;51.654;21.250;2023-02-15T15:45:08;3.30;99.90
59311;DHT22;45078;51.654;21.250;2023-02-15T15:50:41;3.30;99.90
59311;DHT22;45078;51.654;21.250;2023-02-15T15:53:23;3.20;99.90
59311;DHT22;45078;51.654;21.250;2023-02-15T15:55:52;3.30;99.90
59311;DHT22;45078;51.654;21.250;2023-02-15T15:58:21;3.30;99.90
59311;DHT22;45078;51.654;21.250;2023-02-15T16:00:54;3.20;99.90
59311;DHT22;45078;51.654;21.250;2023-02-15T16:03:24;3.20;99.90
59311;DHT22;45078;51.654;21.250;2023-02-15T16:05:50;3.10;99.90
59311;DHT22;45078;51.654;21.250;2023-02-15T16:08:34;3.10;99.90
59311;DHT22;45078;51.654;21.250;2023-02-15T16:11:29;3.00;99.90
59311;DHT22;45078;51.654;21.250;2023-02-15T16:13:55;2.90;99.90
59311;DHT22;45078;51.654;21.250;2023-02-15T16:16:24;2.70;99.90
59311;DHT22;45078;51.654;21.250;2023-02-15T16:18:53;2.60;99.90
59311;DHT22;45078;51.654;21.250;2023-02-15T16:21:23;2.50;99.90
59311;DHT22;45078;51.654;21.250;2023-02-15T16:29:29;1.90;99.90
59311;DHT22;45078;51.654;21.250;2023-02-15T16:32:24;1.70;99.90
59311;DHT22;45078;51.654;21.250;2023-02-15T16:34:56;1.60;99.90
59311;DHT22;45078;51.654;21.250;2023-02-15T16:37:27;1.50;99.90
59311;DHT22;45078;51.654;21.250;2023-02-15T16:39:55;1.40;99.90
59311;DHT22;45078;51.654;21.250;2023-02-15T16:42:21;1.20;99.90
59311;DHT22;45078;51.654;21.250;2023-02-15T16:45:13;1.10;99.90
59311;DHT22;45078;51.654;21.250;2023-02-15T16:47:50;1.00;99.90
59311;DHT22;45078;51.654;21.250;2023-02-15T16:50:28;1.00;99.90
59311;DHT22;45078;51.654;21.250;2023-02-15T16:52:56;0.90;99.90
59311;DHT22;45078;51.654;21.250;2023-02-15T16:55:26;0.80;99.90
59311;DHT22;45078;51.654;21.250;2023-02-15T16:58:00;0.70;99.90
59311;DHT22;45078;51.654;21.250;2023-02-15T17:00:30;0.60;99.90
59311;DHT22;45078;51.654;21.250;2023-02-15T17:05:42;0.50;99.90
59311;DHT22;45078;51.654;21.250;2023-02-15T17:08:27;0.40;99.90
59311;DHT22;45078;51.654;21.250;2023-02-15T17:16:44;0.10;99.90
59311;DHT22;45078;51.654;21.250;2023-02-15T17:19:51;0.00;99.90
59311;DHT22;45078;51.654;21.250;2023-02-15T17:22:24;0.00;99.90
59311;DHT22;45078;51.654;21.250;2023-02-15T17:25:02;-0.10;99.90
59311;DHT22;45078;51.654;21.250;2023-02-15T17:27:31;-0.10;99.90
59311;DHT22;45078;51.654;21.250;2023-02-15T17:30:12;-0.10;99.90
59311;DHT22;45078;51.654;21.250;2023-02-15T17:32:56;-0.30;99.90
59311;DHT22;45078;51.654;21.250;2023-02-15T17:35:25;-0.30;99.90
59311;DHT22;45078;51.654;21.250;2023-02-15T17:38:19;-0.30;99.90
59311;DHT22;45078;51.654;21.250;2023-02-15T17:40:47;-0.30;99.90
59311;DHT22;45078;51.654;21.250;2023-02-15T17:43:12;-0.30;99.90
59311;DHT22;45078;51.654;21.250;2023-02-15T17:45:43;-0.30;99.90
59311;DHT22;45078;51.654;21.250;2023-02-15T17:48:20;-0.40;99.90
59311;DHT22;45078;51.654;21.250;2023-02-15T17:50:48;-0.30;99.90
59311;DHT22;45078;51.654;21.250;2023-02-15T17:53:17;-0.20;99.90
59311;DHT22;45078;51.654;21.250;2023-02-15T17:55:44;-0.20;99.90
59311;DHT22;45078;51.654;21.250;2023-02-15T17:58:13;0.10;99.90
59311;DHT22;45078;51.654;21.250;2023-02-15T18:00:43;0.30;99.90
59311;DHT22;45078;51.654;21.250;2023-02-15T18:03:42;0.40;99.90
59311;DHT22;45078;51.654;21.250;2023-02-15T18:06:27;0.50;99.90
59311;DHT22;45078;51.654;21.250;2023-02-15T18:09:14;0.50;99.90
59311;DHT22;45078;51.654;21.250;2023-02-15T18:11:59;0.40;99.90
59311;DHT22;45078;51.654;21.250;2023-02-15T18:14:25;0.30;99.90
59311;DHT22;45078;51.654;21.250;2023-02-15T18:16:51;0.30;99.90
59311;DHT22;45078;51.654;21.250;2023-02-15T18:19:23;0.20;99.90
59311;DHT22;45078;51.654;21.250;2023-02-15T18:21:50;0.00;99.90
59311;DHT22;45078;51.654;21.250;2023-02-15T18:24:24;-0.10;99.90
59311;DHT22;45078;51.654;21.250;2023-02-15T18:26:52;-0.10;99.90
59311;DHT22;45078;51.654;21.250;2023-02-15T18:29:18;-0.20;99.90
59311;DHT22;45078;51.654;21.250;2023-02-15T18:31:48;-0.20;99.90
59311;DHT22;45078;51.654;21.250;2023-02-15T18:34:35;-0.30;99.90
59311;DHT22;45078;51.654;21.250;2023-02-15T18:37:05;-0.30;99.90
59311;DHT22;45078;51.654;21.250;2023-02-15T18:39:46;-0.30;99.90
59311;DHT22;45078;51.654;21.250;2023-02-15T18:44:50;-0.30;99.90
59311;DHT22;45078;51.654;21.250;2023-02-15T18:47:18;-0.30;99.90
59311;DHT22;45078;51.654;21.250;2023-02-15T18:49:44;-0.40;99.90
59311;DHT22;45078;51.654;21.250;2023-02-15T18:52:18;-0.40;99.90
59311;DHT22;45078;51.654;21.250;2023-02-15T18:54:45;-0.40;99.90
59311;DHT22;45078;51.654;21.250;2023-02-15T18:57:13;-0.40;99.90
59311;DHT22;45078;51.654;21.250;2023-02-15T18:59:40;-0.40;99.90
59311;DHT22;45078;51.654;21.250;2023-02-15T19:02:14;-0.50;99.90
59311;DHT22;45078;51.654;21.250;2023-02-15T19:04:40;-0.50;99.90
59311;DHT22;45078;51.654;21.250;2023-02-15T19:07:29;-0.50;99.90
59311;DHT22;45078;51.654;21.250;2023-02-15T19:09:58;-0.60;99.90
59311;DHT22;45078;51.654;21.250;2023-02-15T19:12:28;-0.60;99.90
59311;DHT22;45078;51.654;21.250;2023-02-15T19:14:54;-0.50;99.90
59311;DHT22;45078;51.654;21.250;2023-02-15T19:17:24;-0.60;99.90
59311;DHT22;45078;51.654;21.250;2023-02-15T19:19:51;-0.60;99.90
59311;DHT22;45078;51.654;21.250;2023-02-15T19:22:26;-0.60;99.90
59311;DHT22;45078;51.654;21.250;2023-02-15T19:24:54;-0.60;99.90